createdAt,value
2023-04-24T00:00:29.247Z,8.45
2023-04-24T00:02:58.241Z,8.30
2023-04-24T00:05:26.599Z,8.50
2023-04-24T00:07:54.415Z,8.30
2023-04-24T00:10:21.964Z,8.63
2023-04-24T00:12:49.453Z,8.80
2023-04-24T00:15:16.882Z,8.13
2023-04-24T00:17:44.357Z,9.05
2023-04-24T00:20:12.268Z,8.80
2023-04-24T00:22:39.738Z,8.75
2023-04-24T00:25:07.455Z,8.77
2023-04-24T00:27:36.586Z,8.30
2023-04-24T00:30:04.463Z,8.52
2023-04-24T00:32:31.981Z,8.32
2023-04-24T00:34:59.403Z,8.15
2023-04-24T00:37:27.005Z,8.23
2023-04-24T00:39:54.473Z,8.00
2023-04-24T00:42:22.286Z,7.82
2023-04-24T00:44:50.002Z,9.25
2023-04-24T00:47:17.562Z,8.40
2023-04-24T00:49:45.214Z,7.60
2023-04-24T00:52:13.583Z,7.80
2023-04-24T00:54:41.538Z,7.13
2023-04-24T00:57:09.054Z,7.15
2023-04-24T00:59:37.608Z,7.97
2023-04-24T01:02:05.344Z,7.65
2023-04-24T01:04:32.985Z,7.40
2023-04-24T01:07:01.058Z,7.50
2023-04-24T01:09:28.881Z,8.23
2023-04-24T01:11:57.626Z,7.72
2023-04-24T01:14:25.152Z,8.00
2023-04-24T01:16:52.633Z,7.78
2023-04-24T01:19:21.941Z,7.40
2023-04-24T01:21:49.723Z,7.97
2023-04-24T01:24:20.414Z,7.63
2023-04-24T01:26:48.228Z,7.60
2023-04-24T01:29:15.640Z,7.25
2023-04-24T01:31:44.661Z,7.68
2023-04-24T01:34:12.375Z,7.65
2023-04-24T01:36:39.934Z,7.50
2023-04-24T01:39:07.643Z,7.78
2023-04-24T01:41:35.675Z,7.80
2023-04-24T01:44:03.596Z,7.78
2023-04-24T01:46:32.578Z,7.95
2023-04-24T01:49:01.573Z,7.28
2023-04-24T01:51:29.015Z,7.65
2023-04-24T01:53:58.012Z,8.07
2023-04-24T01:56:26.181Z,7.78
2023-04-24T01:58:54.361Z,7.50
2023-04-24T02:01:22.228Z,7.78
2023-04-24T02:03:49.886Z,7.70
2023-04-24T02:06:17.640Z,7.38
2023-04-24T02:08:45.142Z,8.32
2023-04-24T02:11:12.725Z,7.90
2023-04-24T02:13:40.155Z,8.20
2023-04-24T02:16:07.759Z,7.93
2023-04-24T02:18:35.191Z,8.02
2023-04-24T02:21:02.633Z,7.72
2023-04-24T02:23:32.257Z,8.43
2023-04-24T02:25:59.758Z,7.70
2023-04-24T02:28:27.301Z,9.00
2023-04-24T02:30:54.813Z,8.18
2023-04-24T02:33:23.496Z,7.55
2023-04-24T02:35:50.950Z,8.15
2023-04-24T02:38:18.442Z,8.25
2023-04-24T02:40:46.081Z,8.30
2023-04-24T02:43:13.489Z,10.18
2023-04-24T02:45:41.096Z,8.68
2023-04-24T02:48:08.579Z,8.85
2023-04-24T02:50:36.310Z,9.02
2023-04-24T02:53:04.136Z,8.43
2023-04-24T02:55:31.737Z,8.82
2023-04-24T02:57:59.249Z,8.50
2023-04-24T03:00:26.786Z,8.85
2023-04-24T03:02:54.463Z,9.38
2023-04-24T03:05:22.100Z,9.43
2023-04-24T03:07:49.573Z,9.30
2023-04-24T03:10:17.079Z,9.43
2023-04-24T03:12:44.486Z,8.70
2023-04-24T03:15:12.022Z,8.88
2023-04-24T03:17:39.528Z,9.35
2023-04-24T03:20:09.124Z,9.77
2023-04-24T03:22:37.419Z,8.27
2023-04-24T03:25:10.131Z,8.90
2023-04-24T03:27:39.190Z,8.95
2023-04-24T03:30:35.787Z,8.63
2023-04-24T03:33:04.184Z,8.68
2023-04-24T03:35:35.532Z,9.02
2023-04-24T03:38:05.747Z,8.30
2023-04-24T03:40:56.538Z,7.78
2023-04-24T03:43:37.323Z,8.48
2023-04-24T03:46:06.106Z,8.57
2023-04-24T03:48:37.978Z,8.40
2023-04-24T03:51:07.222Z,8.40
2023-04-24T03:53:37.249Z,10.10
2023-04-24T03:56:05.378Z,8.00
2023-04-24T03:58:34.098Z,8.23
2023-04-24T04:01:01.723Z,8.98
2023-04-24T04:03:45.082Z,7.82
2023-04-24T04:06:14.112Z,8.48
2023-04-24T04:08:42.448Z,8.75
2023-04-24T04:11:10.403Z,8.35
2023-04-24T04:13:37.800Z,8.68
2023-04-24T04:16:05.590Z,7.57
2023-04-24T04:18:33.408Z,7.80
2023-04-24T04:21:02.433Z,8.00
2023-04-24T04:23:30.725Z,8.10
2023-04-24T04:26:33.589Z,7.35
2023-04-24T04:29:07.768Z,7.60
2023-04-24T04:31:38.677Z,7.20
2023-04-24T04:34:11.207Z,8.02
2023-04-24T04:36:41.189Z,10.68
2023-04-24T04:39:26.255Z,7.60
2023-04-24T04:42:03.228Z,7.32
2023-04-24T04:44:39.527Z,7.32
2023-04-24T04:47:08.644Z,6.85
2023-04-24T04:49:37.875Z,7.60
2023-04-24T04:52:07.448Z,8.02
2023-04-24T04:54:35.571Z,6.28
2023-04-24T04:57:04.307Z,6.40
2023-04-24T04:59:32.774Z,6.50
2023-04-24T05:02:06.077Z,7.18
2023-04-24T05:04:33.926Z,8.27
2023-04-24T05:07:01.639Z,7.07
2023-04-24T05:09:33.763Z,7.05
2023-04-24T05:12:04.350Z,6.82
2023-04-24T05:14:35.971Z,6.90
2023-04-24T05:17:04.016Z,6.75
2023-04-24T05:19:36.959Z,8.18
2023-04-24T05:22:06.266Z,10.13
2023-04-24T05:24:35.922Z,6.78
2023-04-24T05:27:21.697Z,7.82
2023-04-24T05:29:50.293Z,7.53
2023-04-24T05:32:18.123Z,7.80
2023-04-24T05:34:46.034Z,6.20
2023-04-24T05:37:13.623Z,5.78
2023-04-24T05:39:42.931Z,6.55
2023-04-24T05:42:10.897Z,4.65
2023-04-24T05:44:38.371Z,4.90
2023-04-24T05:47:05.926Z,4.75
2023-04-24T05:49:33.819Z,5.20
2023-04-24T05:52:01.402Z,5.32
2023-04-24T05:54:29.212Z,5.50
2023-04-24T05:56:57.608Z,5.43
2023-04-24T05:59:42.532Z,4.57
2023-04-24T06:02:11.464Z,5.43
2023-04-24T06:04:39.108Z,5.03
2023-04-24T06:07:07.392Z,4.68
2023-04-24T06:09:35.466Z,4.60
2023-04-24T06:12:03.531Z,5.40
2023-04-24T06:14:45.664Z,5.63
2023-04-24T06:17:20.394Z,5.28
2023-04-24T06:19:49.074Z,4.57
2023-04-24T06:22:16.860Z,4.85
2023-04-24T06:24:44.384Z,4.82
2023-04-24T06:27:12.195Z,5.10
2023-04-24T06:29:42.324Z,4.80
2023-04-24T06:32:10.077Z,5.03
2023-04-24T06:34:37.695Z,5.57
2023-04-24T06:37:05.185Z,4.30
2023-04-24T06:39:32.603Z,5.07
2023-04-24T06:42:00.296Z,4.75
2023-04-24T06:44:27.732Z,5.32
2023-04-24T06:46:55.156Z,4.78
2023-04-24T06:49:22.653Z,4.10
2023-04-24T06:51:50.013Z,4.10
2023-04-24T06:54:17.602Z,4.13
2023-04-24T06:56:46.720Z,5.28
2023-04-24T06:59:14.146Z,4.53
2023-04-24T07:01:41.567Z,4.38
2023-04-24T07:04:09.352Z,4.53
2023-04-24T07:06:37.104Z,4.20
2023-04-24T07:09:04.746Z,5.40
2023-04-24T07:11:32.555Z,4.88
2023-04-24T07:13:59.979Z,5.10
2023-04-24T07:16:28.237Z,4.18
2023-04-24T07:18:55.837Z,4.75
2023-04-24T07:21:23.232Z,4.30
2023-04-24T07:23:51.028Z,4.40
2023-04-24T07:26:18.848Z,4.60
2023-04-24T07:28:46.449Z,4.60
2023-04-24T07:31:14.067Z,5.25
2023-04-24T07:33:41.530Z,5.00
2023-04-24T07:36:08.967Z,4.85
2023-04-24T07:38:36.600Z,4.53
2023-04-24T07:41:04.006Z,4.72
2023-04-24T07:43:31.631Z,4.45
2023-04-24T07:45:59.161Z,4.50
2023-04-24T07:48:27.446Z,4.50
2023-04-24T07:50:56.068Z,4.55
2023-04-24T07:53:23.666Z,4.38
2023-04-24T07:55:51.110Z,4.30
2023-04-24T07:58:18.652Z,4.70
2023-04-24T08:00:46.598Z,7.10
2023-04-24T08:03:14.324Z,6.18
2023-04-24T08:05:44.120Z,4.97
2023-04-24T08:08:11.718Z,5.25
2023-04-24T08:10:39.144Z,5.30
2023-04-24T08:13:06.629Z,4.93
2023-04-24T08:15:34.115Z,4.82
2023-04-24T08:18:01.936Z,5.00
2023-04-24T08:20:29.397Z,4.97
2023-04-24T08:22:57.544Z,7.18
2023-04-24T08:25:25.772Z,5.55
2023-04-24T08:27:53.492Z,5.15
2023-04-24T08:30:21.424Z,5.80
2023-04-24T08:32:49.540Z,5.43
2023-04-24T08:35:16.981Z,5.35
2023-04-24T08:37:44.421Z,6.05
2023-04-24T08:40:16.162Z,5.90
2023-04-24T08:42:45.357Z,5.20
2023-04-24T08:45:13.682Z,5.28
2023-04-24T08:47:42.299Z,4.32
2023-04-24T08:50:10.858Z,4.47
2023-04-24T08:52:38.357Z,4.47
2023-04-24T08:55:06.127Z,5.93
2023-04-24T08:57:34.872Z,5.03
2023-04-24T09:00:02.424Z,4.93
2023-04-24T09:02:30.711Z,5.00
2023-04-24T09:04:59.191Z,5.40
2023-04-24T09:07:27.137Z,4.90
2023-04-24T09:09:54.826Z,4.47
2023-04-24T09:12:22.567Z,4.82
2023-04-24T09:14:50.100Z,4.50
2023-04-24T09:17:17.538Z,4.85
2023-04-24T09:19:45.115Z,4.43
2023-04-24T09:22:12.893Z,4.30
2023-04-24T09:24:40.484Z,4.63
2023-04-24T09:27:11.201Z,6.13
2023-04-24T09:29:38.922Z,4.35
2023-04-24T09:32:23.266Z,4.85
2023-04-24T09:34:52.008Z,4.68
2023-04-24T09:37:30.155Z,4.60
2023-04-24T09:40:10.016Z,4.60
2023-04-24T09:42:37.621Z,4.45
2023-04-24T09:45:14.658Z,4.10
2023-04-24T09:47:43.563Z,4.80
2023-04-24T09:50:18.254Z,4.55
2023-04-24T09:52:48.483Z,4.65
2023-04-24T09:55:22.380Z,4.60
2023-04-24T09:57:53.744Z,4.20
2023-04-24T10:00:23.905Z,4.95
2023-04-24T10:02:52.889Z,4.10
2023-04-24T10:05:20.490Z,4.22
2023-04-24T10:07:49.578Z,4.25
2023-04-24T10:10:17.979Z,4.90
2023-04-24T10:12:46.109Z,4.45
2023-04-24T10:15:14.197Z,4.35
2023-04-24T10:17:42.247Z,4.67
2023-04-24T10:20:09.847Z,4.22
2023-04-24T10:22:38.224Z,4.97
2023-04-24T10:25:06.606Z,4.78
2023-04-24T10:27:34.220Z,5.07
2023-04-24T10:30:02.340Z,5.10
2023-04-24T10:32:30.105Z,5.22
2023-04-24T10:34:57.893Z,4.53
2023-04-24T10:37:27.263Z,4.75
2023-04-24T10:39:55.768Z,4.53
2023-04-24T10:42:23.850Z,4.50
2023-04-24T10:44:51.912Z,4.80
2023-04-24T10:47:19.357Z,4.75
2023-04-24T10:49:46.972Z,4.60
2023-04-24T10:52:17.403Z,5.55
2023-04-24T10:54:48.762Z,4.70
2023-04-24T10:57:25.697Z,4.35
2023-04-24T11:00:13.505Z,4.28
2023-04-24T11:02:49.407Z,3.80
2023-04-24T11:05:18.708Z,4.05
2023-04-24T11:08:07.256Z,4.07
2023-04-24T11:10:34.818Z,4.32
2023-04-24T11:13:03.917Z,3.95
2023-04-24T11:15:31.561Z,3.95
2023-04-24T11:17:59.053Z,3.70
2023-04-24T11:20:28.575Z,3.40
2023-04-24T11:22:58.790Z,3.88
2023-04-24T11:25:26.813Z,4.30
2023-04-24T11:28:04.842Z,4.45
2023-04-24T11:30:32.944Z,4.63
2023-04-24T11:33:04.587Z,3.95
2023-04-24T11:35:38.339Z,4.10
2023-04-24T11:40:36.901Z,4.22
2023-04-24T11:43:07.598Z,4.50
2023-04-24T11:45:35.877Z,3.88
2023-04-24T11:48:04.967Z,4.05
2023-04-24T11:50:32.499Z,3.75
2023-04-24T11:53:01.406Z,4.60
2023-04-24T11:55:30.527Z,4.10
2023-04-24T11:57:58.912Z,3.78
2023-04-24T12:00:30.138Z,4.00
2023-04-24T12:03:11.509Z,4.10
2023-04-24T12:05:40.033Z,3.75
2023-04-24T12:08:07.703Z,4.10
2023-04-24T12:10:36.058Z,3.78
2023-04-24T12:13:03.689Z,4.15
2023-04-24T12:15:31.621Z,3.63
2023-04-24T12:17:59.399Z,3.92
2023-04-24T12:20:33.600Z,3.60
2023-04-24T12:23:01.997Z,4.13
2023-04-24T12:25:30.482Z,3.85
2023-04-24T12:28:15.970Z,3.72
2023-04-24T12:30:45.966Z,3.60
2023-04-24T12:33:13.675Z,3.67
2023-04-24T12:35:42.273Z,3.75
2023-04-24T12:38:23.346Z,3.20
2023-04-24T12:41:02.972Z,3.17
2023-04-24T12:43:30.428Z,3.05
2023-04-24T12:45:58.110Z,3.53
2023-04-24T12:48:25.829Z,3.70
2023-04-24T12:50:53.439Z,3.60
2023-04-24T12:53:21.068Z,3.30
2023-04-24T12:55:53.596Z,4.45
2023-04-24T12:58:21.934Z,3.30
2023-04-24T13:00:49.575Z,4.00
2023-04-24T13:03:17.310Z,4.20
2023-04-24T13:05:45.131Z,3.90
2023-04-24T13:08:13.831Z,16.50
2023-04-24T13:10:41.910Z,4.57
2023-04-24T13:13:10.156Z,5.20
2023-04-24T13:15:37.594Z,3.83
2023-04-24T13:18:05.321Z,5.93
2023-04-24T13:20:32.910Z,5.70
2023-04-24T13:23:01.043Z,4.13
2023-04-24T13:25:29.162Z,4.20
2023-04-24T13:27:56.593Z,3.30
2023-04-24T13:30:24.094Z,3.45
2023-04-24T13:32:51.509Z,4.00
2023-04-24T13:35:19.156Z,4.28
2023-04-24T13:37:46.530Z,6.65
2023-04-24T13:40:13.985Z,3.92
2023-04-24T13:42:41.900Z,4.25
2023-04-24T13:47:41.813Z,3.90
2023-04-24T13:50:10.419Z,4.30
2023-04-24T13:52:37.914Z,3.97
2023-04-24T13:55:05.540Z,3.83
2023-04-24T13:57:33.078Z,4.82
2023-04-24T14:00:02.810Z,4.47
2023-04-24T14:02:34.738Z,4.25
2023-04-24T14:05:02.456Z,4.43
2023-04-24T14:07:30.081Z,4.60
2023-04-24T14:09:58.034Z,5.35
2023-04-24T14:12:25.713Z,4.00
2023-04-24T14:14:53.089Z,3.63
2023-04-24T14:17:20.646Z,7.35
2023-04-24T14:19:48.159Z,4.15
2023-04-24T14:22:15.570Z,4.00
2023-04-24T14:24:43.084Z,3.67
2023-04-24T14:27:10.777Z,4.15
2023-04-24T14:29:38.146Z,3.63
2023-04-24T14:32:05.602Z,3.80
2023-04-24T14:34:33.089Z,3.80
2023-04-24T14:37:00.603Z,4.22
2023-04-24T14:39:28.002Z,4.10
2023-04-24T14:41:56.228Z,4.32
2023-04-24T14:44:23.608Z,3.80
2023-04-24T14:46:51.219Z,4.30
2023-04-24T14:49:18.788Z,3.53
2023-04-24T14:51:46.436Z,3.72
2023-04-24T14:54:13.903Z,3.58
2023-04-24T14:56:42.037Z,3.70
2023-04-24T14:59:09.510Z,3.88
2023-04-24T15:01:37.061Z,3.85
2023-04-24T15:04:04.676Z,4.25
2023-04-24T15:06:32.898Z,4.20
2023-04-24T15:09:00.759Z,4.20
2023-04-24T15:11:28.591Z,3.90
2023-04-24T15:13:56.381Z,3.97
2023-04-24T15:16:23.939Z,3.85
2023-04-24T15:18:51.452Z,3.65
2023-04-24T15:21:18.895Z,4.30
2023-04-24T15:23:46.690Z,4.13
2023-04-24T15:26:14.164Z,3.90
2023-04-24T15:28:41.559Z,4.10
2023-04-24T15:31:09.035Z,3.72
2023-04-24T15:33:36.636Z,5.00
2023-04-24T15:36:04.053Z,4.88
2023-04-24T15:38:32.174Z,9.93
2023-04-24T15:40:59.694Z,7.03
2023-04-24T15:43:27.379Z,5.35
2023-04-24T15:45:54.867Z,4.95
2023-04-24T15:48:22.406Z,4.63
2023-04-24T15:50:53.862Z,12.18
2023-04-24T15:53:24.117Z,6.45
2023-04-24T15:55:52.301Z,5.20
2023-04-24T15:58:20.575Z,4.30
2023-04-24T16:00:48.362Z,4.60
2023-04-24T16:03:16.088Z,6.15
2023-04-24T16:05:43.868Z,8.25
2023-04-24T16:08:11.463Z,5.57
2023-04-24T16:10:39.035Z,12.27
2023-04-24T16:13:06.773Z,9.20
2023-04-24T16:15:37.546Z,8.82
2023-04-24T16:18:05.147Z,8.68
2023-04-24T16:20:32.771Z,30.95
2023-04-24T16:23:00.672Z,13.48
2023-04-24T16:25:28.155Z,22.98
2023-04-24T16:27:57.044Z,14.52
2023-04-24T16:30:34.288Z,12.93
2023-04-24T16:33:07.823Z,16.80
2023-04-24T16:35:36.083Z,14.60
2023-04-24T16:38:04.742Z,7.68
2023-04-24T16:40:32.490Z,8.38
2023-04-24T16:43:00.002Z,10.50
2023-04-24T16:45:27.633Z,13.25
2023-04-24T16:47:55.260Z,8.77
2023-04-24T16:50:22.817Z,13.50
2023-04-24T16:52:50.422Z,13.68
2023-04-24T16:55:18.071Z,11.65
2023-04-24T16:57:45.590Z,8.77
2023-04-24T17:00:13.440Z,10.25
2023-04-24T17:02:41.040Z,9.70
2023-04-24T17:05:08.837Z,9.00
2023-04-24T17:07:36.307Z,7.95
2023-04-24T17:10:04.524Z,6.70
2023-04-24T17:12:32.032Z,5.90
2023-04-24T17:14:59.660Z,6.57
2023-04-24T17:17:27.170Z,6.25
2023-04-24T17:19:54.925Z,5.30
2023-04-24T17:22:22.431Z,5.13
2023-04-24T17:24:50.025Z,5.40
2023-04-24T17:27:17.628Z,5.40
2023-04-24T17:29:45.131Z,4.90
2023-04-24T17:32:12.727Z,6.45
2023-04-24T17:34:40.355Z,9.05
2023-04-24T17:37:07.967Z,7.00
2023-04-24T17:39:35.457Z,9.68
2023-04-24T17:42:02.968Z,7.00
2023-04-24T17:44:30.374Z,8.85
2023-04-24T17:46:57.883Z,8.70
2023-04-24T17:49:25.369Z,9.55
2023-04-24T17:51:52.930Z,11.40
2023-04-24T17:54:20.453Z,15.57
2023-04-24T17:56:48.045Z,9.40
2023-04-24T17:59:16.546Z,7.15
2023-04-24T18:01:44.137Z,5.70
2023-04-24T18:04:11.980Z,6.18
2023-04-24T18:06:39.853Z,7.13
2023-04-24T18:09:07.693Z,7.35
2023-04-24T18:11:35.918Z,6.55
2023-04-24T18:14:03.405Z,6.53
2023-04-24T18:16:30.924Z,8.75
2023-04-24T18:18:58.625Z,8.35
2023-04-24T18:21:26.502Z,7.55
2023-04-24T18:23:55.224Z,7.82
2023-04-24T18:26:22.689Z,13.45
2023-04-24T18:28:50.622Z,15.98
2023-04-24T18:31:18.745Z,10.52
2023-04-24T18:33:46.293Z,8.93
2023-04-24T18:36:13.962Z,10.00
2023-04-24T18:38:41.522Z,11.52
2023-04-24T18:41:09.078Z,14.52
2023-04-24T18:43:36.828Z,17.52
2023-04-24T18:46:04.319Z,14.95
2023-04-24T18:48:31.923Z,11.35
2023-04-24T18:50:59.449Z,11.57
2023-04-24T18:53:27.024Z,16.67
2023-04-24T18:55:54.640Z,12.90
2023-04-24T18:58:22.198Z,8.50
2023-04-24T19:00:50.985Z,9.05
2023-04-24T19:03:18.577Z,9.43
2023-04-24T19:05:46.124Z,9.05
2023-04-24T19:08:13.615Z,7.50
2023-04-24T19:10:41.098Z,7.72
2023-04-24T19:13:08.753Z,7.75
2023-04-24T19:15:36.277Z,7.30
2023-04-24T19:18:03.746Z,7.80
2023-04-24T19:20:31.247Z,7.75
2023-04-24T19:22:59.171Z,8.20
2023-04-24T19:25:26.827Z,8.25
2023-04-24T19:27:54.820Z,8.20
2023-04-24T19:30:22.473Z,7.40
2023-04-24T19:32:50.145Z,8.23
2023-04-24T19:35:17.738Z,7.07
2023-04-24T19:37:45.304Z,6.30
2023-04-24T19:40:12.998Z,7.00
2023-04-24T19:42:44.396Z,6.10
2023-04-24T19:45:15.676Z,7.70
2023-04-24T19:47:43.500Z,5.82
2023-04-24T19:50:11.226Z,6.43
2023-04-24T19:52:38.712Z,6.90
2023-04-24T19:55:06.395Z,7.45
2023-04-24T19:57:35.205Z,7.80
2023-04-24T20:00:02.663Z,8.45
2023-04-24T20:02:32.562Z,8.15
2023-04-24T20:05:00.614Z,9.45
2023-04-24T20:07:28.197Z,9.77
2023-04-24T20:09:55.714Z,9.20
2023-04-24T20:12:23.263Z,9.23
2023-04-24T20:14:50.937Z,9.45
2023-04-24T20:17:18.599Z,8.68
2023-04-24T20:19:46.540Z,9.52
2023-04-24T20:22:14.084Z,9.38
2023-04-24T20:24:41.645Z,9.35
2023-04-24T20:27:09.049Z,9.10
2023-04-24T20:29:36.544Z,8.93
2023-04-24T20:32:04.033Z,8.90
2023-04-24T20:34:32.255Z,9.55
2023-04-24T20:36:59.712Z,9.85
2023-04-24T20:39:27.185Z,9.77
2023-04-24T20:41:54.790Z,9.38
2023-04-24T20:44:24.734Z,9.77
2023-04-24T20:46:52.444Z,9.02
2023-04-24T20:49:19.958Z,9.70
2023-04-24T20:51:47.670Z,9.45
2023-04-24T20:54:15.093Z,9.23
2023-04-24T20:56:42.588Z,9.25
2023-04-24T20:59:10.024Z,9.13
2023-04-24T21:01:37.725Z,9.02
2023-04-24T21:04:05.563Z,8.50
2023-04-24T21:06:33.154Z,8.48
2023-04-24T21:09:00.712Z,8.65
2023-04-24T21:11:28.178Z,8.27
2023-04-24T21:13:55.631Z,8.70
2023-04-24T21:16:24.198Z,8.82
2023-04-24T21:18:51.690Z,8.63
2023-04-24T21:21:19.174Z,8.38
2023-04-24T21:23:46.725Z,7.68
2023-04-24T21:26:14.399Z,7.40
2023-04-24T21:28:41.888Z,7.30
2023-04-24T21:31:09.378Z,7.18
2023-04-24T21:33:36.885Z,7.05
2023-04-24T21:36:04.455Z,6.68
2023-04-24T21:38:32.268Z,6.82
2023-04-24T21:40:59.769Z,6.50
2023-04-24T21:43:37.196Z,6.60
2023-04-24T21:46:11.451Z,6.28
2023-04-24T21:48:38.915Z,6.00
2023-04-24T21:51:06.395Z,6.00
2023-04-24T21:53:33.959Z,6.65
2023-04-24T21:56:01.518Z,6.75
2023-04-24T21:58:29.019Z,6.78
2023-04-24T22:00:56.530Z,7.53
2023-04-24T22:03:24.179Z,7.47
2023-04-24T22:05:51.776Z,7.85
2023-04-24T22:08:19.259Z,6.95
2023-04-24T22:10:46.870Z,7.38
2023-04-24T22:13:14.301Z,6.55
2023-04-24T22:15:41.771Z,6.65
2023-04-24T22:18:09.338Z,7.40
2023-04-24T22:20:37.688Z,6.80
2023-04-24T22:23:05.144Z,7.22
2023-04-24T22:25:32.749Z,6.90
2023-04-24T22:28:00.376Z,6.93
2023-04-24T22:30:28.165Z,7.28
2023-04-24T22:32:55.639Z,7.30
2023-04-24T22:35:23.238Z,7.13
2023-04-24T22:37:55.027Z,7.10
2023-04-24T22:40:22.791Z,6.90
2023-04-24T22:42:50.300Z,7.13
2023-04-24T22:45:18.650Z,7.38
2023-04-24T22:47:46.146Z,7.07
2023-04-24T22:50:13.945Z,7.72
2023-04-24T22:52:41.400Z,7.45
2023-04-24T22:55:09.439Z,7.22
2023-04-24T22:57:37.252Z,8.02
2023-04-24T23:00:10.931Z,7.47
2023-04-24T23:02:39.819Z,7.25
2023-04-24T23:05:08.492Z,7.18
2023-04-24T23:07:36.780Z,7.30
2023-04-24T23:10:04.614Z,7.40
2023-04-24T23:12:32.076Z,6.60
2023-04-24T23:14:59.575Z,6.65
2023-04-24T23:17:27.038Z,6.63
2023-04-24T23:19:54.476Z,6.47
2023-04-24T23:22:21.961Z,6.05
2023-04-24T23:24:49.514Z,5.95
2023-04-24T23:27:17.025Z,6.40
2023-04-24T23:29:44.493Z,5.93
2023-04-24T23:32:12.029Z,5.78
2023-04-24T23:34:39.661Z,5.80
2023-04-24T23:37:07.361Z,5.63
2023-04-24T23:39:34.893Z,5.40
2023-04-24T23:42:02.991Z,5.75
2023-04-24T23:44:31.098Z,5.50
2023-04-24T23:46:58.528Z,5.78
2023-04-24T23:49:26.210Z,5.72
2023-04-24T23:51:53.860Z,5.15
2023-04-24T23:54:21.388Z,5.95
2023-04-24T23:56:49.104Z,5.70
2023-04-24T23:59:16.613Z,5.70
